Time;durP1;ratioP1;P1;durP2;ratioP2;P2;SDS_P1;SDS_P2;PMS_P1;PMS_P2;Temp;Humidity;BMP_temperature;BMP_pressure;BME280_temperature;BME280_humidity;BME280_pressure;Samples;Min_cycle;Max_cycle;Signal;HPM_P1;HPM_P2
2022/11/01 00:00:39;;;;;;;;;;;;;;;12.25;74.51;95459.00;5086667;28;20491;-71
2022/11/01 00:03:05;;;;;;;;;;;;;;;13.22;72.83;95432.31;5089399;28;20099;-72
2022/11/01 00:05:30;;;;;;;;;;;;;;;12.85;73.76;95455.78;5088384;28;20023;-72
2022/11/01 00:07:55;;;;;;;;;;;;;;;13.45;71.80;95436.41;5089007;28;20476;-71
2022/11/01 00:10:21;;;;;;;;;;;;;;;13.68;69.95;95452.28;5089061;28;20112;-71
2022/11/01 00:12:47;;;;;;;;;;;;;;;13.59;70.09;95456.84;5090280;28;20361;-71
2022/11/01 00:15:12;;;;;;;;;;;;;;;13.98;68.95;95453.22;5087105;28;20381;-71
2022/11/01 00:17:37;;;;;;;;;;;;;;;14.16;68.21;95456.63;5090421;28;20015;-71
2022/11/01 00:20:03;;;;;;;;;;;;;;;14.26;67.65;95445.56;5087126;28;20381;-71
2022/11/01 00:22:28;;;;;;;;;;;;;;;14.30;67.22;95449.19;5086585;28;20079;-72
2022/11/01 00:24:53;;;;;;;;;;;;;;;14.25;66.78;95452.81;5088625;28;20056;-71
2022/11/01 00:27:19;;;;;;;;;;;;;;;14.29;66.52;95447.63;5089444;28;20016;-71
2022/11/01 00:29:44;;;;;;;;;;;;;;;14.28;66.65;95456.75;5089611;28;20416;-71
2022/11/01 00:32:09;;;;;;;;;;;;;;;14.20;66.72;95452.22;5089523;28;20059;-71
2022/11/01 00:34:34;;;;;;;;;;;;;;;14.19;66.64;95447.97;5089438;28;20020;-71
2022/11/01 00:36:59;;;;;;;;;;;;;;;14.14;66.21;95438.22;5087314;28;20016;-71
2022/11/01 00:39:25;;;;;;;;;;;;;;;14.12;66.64;95436.94;5089206;28;20048;-72
2022/11/01 00:41:50;;;;;;;;;;;;;;;14.10;66.71;95444.53;5090402;28;20486;-71
2022/11/01 00:44:16;;;;;;;;;;;;;;;14.07;66.66;95440.59;5088938;28;20009;-72
2022/11/01 00:46:41;;;;;;;;;;;;;;;14.04;66.43;95438.56;5088432;28;20016;-72
2022/11/01 00:49:06;;;;;;;;;;;;;;;14.01;66.38;95429.28;5088311;28;20088;-71
2022/11/01 00:51:31;;;;;;;;;;;;;;;13.99;66.50;95426.13;5089007;28;20020;-71
2022/11/01 00:53:57;;;;;;;;;;;;;;;13.94;67.16;95431.66;5089349;28;20013;-71
2022/11/01 00:56:22;;;;;;;;;;;;;;;13.73;67.94;95422.72;5088203;28;20113;-71
2022/11/01 00:58:47;;;;;;;;;;;;;;;13.91;67.99;95432.28;5087893;28;20021;-71
2022/11/01 01:01:13;;;;;;;;;;;;;;;13.96;67.21;95432.09;5088929;28;20158;-73
2022/11/01 01:03:38;;;;;;;;;;;;;;;13.98;66.99;95429.91;5091202;28;20017;-71
2022/11/01 01:06:03;;;;;;;;;;;;;;;13.98;66.65;95437.16;5093277;28;20100;-71
2022/11/01 01:08:29;;;;;;;;;;;;;;;13.97;67.07;95439.06;5091999;28;20015;-72
2022/11/01 01:10:54;;;;;;;;;;;;;;;13.98;67.03;95443.28;5093760;28;20372;-71
2022/11/01 01:13:19;;;;;;;;;;;;;;;14.00;66.76;95437.63;5092666;28;20013;-71
2022/11/01 01:15:44;;;;;;;;;;;;;;;14.00;66.79;95427.69;5092236;28;20020;-72
2022/11/01 01:18:10;;;;;;;;;;;;;;;13.98;66.51;95432.59;5091555;28;20052;-71
2022/11/01 01:20:36;;;;;;;;;;;;;;;13.95;66.86;95427.09;5091706;28;20020;-72
2022/11/01 01:23:01;;;;;;;;;;;;;;;14.05;66.72;95422.19;5092250;28;20510;-72
2022/11/01 01:25:27;;;;;;;;;;;;;;;14.05;66.64;95416.06;5088799;28;20013;-71
2022/11/01 01:27:53;;;;;;;;;;;;;;;14.09;66.48;95414.31;5092007;28;20066;-71
2022/11/01 01:30:18;;;;;;;;;;;;;;;14.14;66.19;95413.38;5092536;28;20153;-71
2022/11/01 01:32:44;;;;;;;;;;;;;;;14.17;66.18;95413.50;5091743;28;20112;-72
2022/11/01 01:35:09;;;;;;;;;;;;;;;14.19;65.71;95410.50;5092205;28;20434;-71
2022/11/01 01:37:34;;;;;;;;;;;;;;;14.22;65.71;95410.63;5093466;28;20005;-71
2022/11/01 01:40:00;;;;;;;;;;;;;;;14.23;65.39;95406.09;5092314;28;20485;-71
2022/11/01 01:42:25;;;;;;;;;;;;;;;14.32;65.68;95404.94;5091726;28;20019;-72
2022/11/01 01:44:54;;;;;;;;;;;;;;;14.40;65.17;95406.03;5090663;28;20109;-71
2022/11/01 01:47:19;;;;;;;;;;;;;;;14.49;64.33;95412.16;5092221;28;20488;-71
2022/11/01 01:49:46;;;;;;;;;;;;;;;14.56;64.58;95409.75;5090190;28;20101;-71
2022/11/01 01:52:11;;;;;;;;;;;;;;;14.60;63.81;95398.41;5092933;28;20052;-71
2022/11/01 01:54:37;;;;;;;;;;;;;;;14.64;63.94;95405.47;5091910;28;20063;-71
2022/11/01 01:57:02;;;;;;;;;;;;;;;14.62;63.26;95406.91;5091443;28;20078;-71
2022/11/01 01:59:28;;;;;;;;;;;;;;;14.60;63.23;95409.91;5090112;28;20551;-71
2022/11/01 02:01:53;;;;;;;;;;;;;;;14.52;63.52;95400.78;5090692;28;20017;-71
2022/11/01 02:04:25;;;;;;;;;;;;;;;14.43;63.87;95404.59;5091963;28;20049;-71
2022/11/01 02:06:50;;;;;;;;;;;;;;;14.45;63.30;95397.03;5092203;28;20009;-71
2022/11/01 02:09:17;;;;;;;;;;;;;;;14.41;63.48;95404.91;5091149;28;20454;-71
2022/11/01 02:11:42;;;;;;;;;;;;;;;14.41;63.29;95409.47;5092254;28;20005;-71
2022/11/01 02:14:07;;;;;;;;;;;;;;;14.38;63.26;95410.13;5090422;28;20077;-70
2022/11/01 02:16:45;;;;;;;;;;;;;;;14.35;63.12;95408.88;5089852;28;20017;-71
2022/11/01 02:19:10;;;;;;;;;;;;;;;14.30;63.15;95407.16;5091470;28;20034;-72
2022/11/01 02:21:46;;;;;;;;;;;;;;;14.29;63.35;95410.16;5091283;28;20081;-72
2022/11/01 02:24:30;;;;;;;;;;;;;;;14.31;63.34;95403.38;5091521;28;20031;-71
2022/11/01 02:27:13;;;;;;;;;;;;;;;14.33;63.23;95416.47;5090368;28;20062;-71
2022/11/01 02:29:53;;;;;;;;;;;;;;;14.33;62.67;95411.09;5089487;28;20431;-72
2022/11/01 02:32:21;;;;;;;;;;;;;;;14.34;62.73;95414.56;5089584;28;20546;-71
2022/11/01 02:34:58;;;;;;;;;;;;;;;14.34;62.28;95411.88;5089885;28;20015;-71
2022/11/01 02:37:26;;;;;;;;;;;;;;;14.27;62.10;95423.06;5092009;28;20005;-71
2022/11/01 02:39:54;;;;;;;;;;;;;;;14.30;62.34;95411.72;5091146;28;20013;-71
2022/11/01 02:42:26;;;;;;;;;;;;;;;14.30;62.37;95409.06;5091814;28;20114;-71
2022/11/01 02:44:56;;;;;;;;;;;;;;;14.28;62.19;95409.38;5089726;28;20415;-71
2022/11/01 02:47:22;;;;;;;;;;;;;;;14.28;62.16;95405.94;5089833;28;20427;-71
2022/11/01 02:49:50;;;;;;;;;;;;;;;14.29;61.69;95407.50;5090921;28;20017;-71
2022/11/01 02:52:20;;;;;;;;;;;;;;;14.28;61.71;95413.97;5089961;28;20038;-71
2022/11/01 02:54:52;;;;;;;;;;;;;;;14.25;61.76;95415.38;5091018;28;20020;-71
2022/11/01 02:57:33;;;;;;;;;;;;;;;14.24;61.37;95407.66;5091729;28;20358;-72
2022/11/01 03:00:03;;;;;;;;;;;;;;;14.21;61.32;95409.06;5089838;28;20016;-72
2022/11/01 03:02:40;;;;;;;;;;;;;;;14.22;61.52;95405.28;5089117;28;20017;-71
2022/11/01 03:05:09;;;;;;;;;;;;;;;14.20;61.51;95414.75;5104510;28;20062;-71
2022/11/01 03:07:34;;;;;;;;;;;;;;;14.21;61.61;95411.75;5089682;28;20005;-71
2022/11/01 03:10:00;;;;;;;;;;;;;;;14.23;61.75;95409.56;5089818;28;20062;-72
2022/11/01 03:12:27;;;;;;;;;;;;;;;14.19;61.34;95422.00;5091161;28;20373;-72
2022/11/01 03:14:53;;;;;;;;;;;;;;;14.13;61.31;95427.84;5090061;28;20010;-71
2022/11/01 03:17:31;;;;;;;;;;;;;;;14.23;61.00;95427.50;5088288;28;20036;-71
2022/11/01 03:20:04;;;;;;;;;;;;;;;14.39;60.33;95427.75;5091469;28;20004;-73
2022/11/01 03:22:33;;;;;;;;;;;;;;;14.41;60.54;95430.91;5089985;28;20016;-71
2022/11/01 03:28:14;;;;;;;;;;;;;;;14.05;60.28;95438.22;5071073;28;20646;-72
2022/11/01 03:30:44;;;;;;;;;;;;;;;14.19;59.52;95431.91;5076681;28;20116;-71
2022/11/01 03:33:13;;;;;;;;;;;;;;;14.48;59.39;95434.66;5082214;28;20064;-72
2022/11/01 03:35:40;;;;;;;;;;;;;;;14.54;59.32;95441.44;5089295;28;20024;-72
2022/11/01 03:38:09;;;;;;;;;;;;;;;14.36;59.50;95441.78;5091119;28;20050;-72
2022/11/01 03:40:37;;;;;;;;;;;;;;;14.17;60.14;95442.13;5089773;28;20019;-72
2022/11/01 03:43:08;;;;;;;;;;;;;;;13.94;60.09;95449.59;5090929;28;20368;-71
2022/11/01 03:45:36;;;;;;;;;;;;;;;14.04;59.92;95447.38;5089129;28;20040;-72
2022/11/01 03:48:01;;;;;;;;;;;;;;;14.18;59.71;95451.75;5089904;28;20111;-71
2022/11/01 03:50:27;;;;;;;;;;;;;;;14.00;59.86;95459.78;5087174;28;20020;-71
2022/11/01 03:52:52;;;;;;;;;;;;;;;14.09;59.10;95459.00;5090568;28;20036;-71
2022/11/01 03:55:18;;;;;;;;;;;;;;;14.08;58.91;95452.88;5089001;28;20472;-71
2022/11/01 03:57:51;;;;;;;;;;;;;;;14.29;58.76;95450.31;5088656;28;20016;-71
2022/11/01 04:00:24;;;;;;;;;;;;;;;14.36;58.60;95452.47;5087169;28;20009;-71
2022/11/01 04:02:50;;;;;;;;;;;;;;;14.36;58.72;95450.59;5086754;28;20016;-71
2022/11/01 04:05:15;;;;;;;;;;;;;;;14.27;59.08;95463.19;5088727;28;20355;-71
2022/11/01 04:07:41;;;;;;;;;;;;;;;13.94;59.19;95426.31;5087356;28;20016;-71
2022/11/01 04:10:06;;;;;;;;;;;;;;;14.09;59.78;95467.03;5089579;28;20005;-71
2022/11/01 04:12:32;;;;;;;;;;;;;;;13.86;60.02;95471.78;5088962;28;20439;-71
2022/11/01 04:20:34;;;;;;;;;;;;;;;13.96;59.85;95474.13;5089068;28;20051;-71
2022/11/01 04:23:06;;;;;;;;;;;;;;;13.95;59.70;95473.34;5088224;28;20012;-71
2022/11/01 04:25:33;;;;;;;;;;;;;;;13.95;59.99;95467.19;5088706;28;20484;-71
2022/11/01 04:27:58;;;;;;;;;;;;;;;13.97;60.04;95470.34;5090114;28;20376;-72
2022/11/01 04:30:25;;;;;;;;;;;;;;;13.98;59.79;95467.38;5086875;28;20076;-71
2022/11/01 04:32:50;;;;;;;;;;;;;;;13.99;59.59;95470.81;5088920;28;20061;-71
2022/11/01 04:35:15;;;;;;;;;;;;;;;13.73;59.98;95478.88;5088469;28;20100;-71
2022/11/01 04:37:40;;;;;;;;;;;;;;;13.83;59.79;95480.44;5089048;28;20009;-72
2022/11/01 04:40:06;;;;;;;;;;;;;;;13.91;59.84;95483.09;5089151;28;20381;-71
2022/11/01 04:42:35;;;;;;;;;;;;;;;13.96;59.04;95479.47;5084423;28;20018;-71
2022/11/01 04:45:00;;;;;;;;;;;;;;;13.88;59.52;95486.41;5083944;28;20113;-72
2022/11/01 04:47:26;;;;;;;;;;;;;;;13.93;59.26;95494.28;5087979;28;20022;-72
2022/11/01 04:49:51;;;;;;;;;;;;;;;14.03;59.40;95490.50;5088707;28;20009;-72
2022/11/01 04:52:17;;;;;;;;;;;;;;;14.21;58.64;95494.69;5089974;28;20373;-71
2022/11/01 04:54:42;;;;;;;;;;;;;;;14.24;58.51;95504.00;5083992;28;20014;-71
2022/11/01 04:57:21;;;;;;;;;;;;;;;14.12;58.55;95509.19;5087025;28;20465;-71
2022/11/01 04:59:46;;;;;;;;;;;;;;;14.18;58.80;95511.41;5088138;28;20013;-72
2022/11/01 05:02:12;;;;;;;;;;;;;;;14.22;58.72;95508.84;5088715;28;20441;-72
2022/11/01 05:04:37;;;;;;;;;;;;;;;14.05;58.77;95515.81;5088680;28;20078;-71
2022/11/01 05:07:02;;;;;;;;;;;;;;;14.11;59.13;95515.63;5072059;28;20019;-71
2022/11/01 05:09:27;;;;;;;;;;;;;;;14.16;58.89;95518.16;5069613;28;20028;-72
2022/11/01 05:11:53;;;;;;;;;;;;;;;14.23;58.95;95508.56;5081297;28;20020;-72
2022/11/01 05:14:18;;;;;;;;;;;;;;;14.25;58.41;95514.38;5090199;28;20456;-71
2022/11/01 05:16:43;;;;;;;;;;;;;;;14.27;58.87;95517.50;5075142;28;20055;-71
2022/11/01 05:19:08;;;;;;;;;;;;;;;14.34;58.56;95518.94;5069638;28;20035;-72
2022/11/01 05:21:34;;;;;;;;;;;;;;;14.37;58.81;95521.72;5080788;28;20013;-71
2022/11/01 05:23:59;;;;;;;;;;;;;;;14.39;58.84;95526.78;5087779;28;20142;-72
2022/11/01 05:26:24;;;;;;;;;;;;;;;14.40;58.78;95528.34;5087425;28;20057;-71
2022/11/01 05:28:49;;;;;;;;;;;;;;;14.41;58.93;95535.28;5087338;28;20082;-71
2022/11/01 05:31:15;;;;;;;;;;;;;;;14.42;59.02;95537.63;5086313;28;20107;-72
2022/11/01 05:33:40;;;;;;;;;;;;;;;14.43;58.65;95541.88;5089291;28;20013;-71
2022/11/01 05:36:06;;;;;;;;;;;;;;;14.45;58.58;95542.34;5086793;28;20016;-71
2022/11/01 05:38:31;;;;;;;;;;;;;;;14.43;58.98;95539.19;5089709;28;20096;-71
2022/11/01 05:40:56;;;;;;;;;;;;;;;14.44;58.57;95540.78;5088538;28;20107;-71
2022/11/01 05:43:22;;;;;;;;;;;;;;;14.46;58.56;95551.16;5089647;28;20005;-71
2022/11/01 05:45:47;;;;;;;;;;;;;;;14.48;58.84;95546.28;5081571;28;20013;-70
2022/11/01 05:48:12;;;;;;;;;;;;;;;14.52;58.56;95548.03;5072748;28;20013;-69
2022/11/01 05:50:37;;;;;;;;;;;;;;;14.54;58.69;95559.22;5090138;28;20013;-70
2022/11/01 05:53:03;;;;;;;;;;;;;;;14.59;58.41;95560.94;5093355;28;20012;-69
2022/11/01 05:55:28;;;;;;;;;;;;;;;14.62;58.70;95562.97;5090648;28;20021;-70
2022/11/01 05:57:57;;;;;;;;;;;;;;;14.68;58.61;95568.94;5093171;28;20005;-69
2022/11/01 06:00:22;;;;;;;;;;;;;;;14.70;58.18;95572.88;5091190;28;20017;-70
2022/11/01 06:02:47;;;;;;;;;;;;;;;14.72;58.54;95577.91;5091047;28;20013;-71
2022/11/01 06:05:12;;;;;;;;;;;;;;;14.74;58.30;95581.03;5091001;28;20020;-71
2022/11/01 06:07:38;;;;;;;;;;;;;;;14.76;58.59;95584.19;5092310;28;20481;-70
2022/11/01 06:10:04;;;;;;;;;;;;;;;14.79;58.25;95583.53;5092839;28;20009;-69
2022/11/01 06:12:29;;;;;;;;;;;;;;;14.75;58.34;95582.63;5091820;28;20012;-70
2022/11/01 06:14:54;;;;;;;;;;;;;;;14.75;58.18;95583.41;5092271;28;20054;-69
2022/11/01 06:17:19;;;;;;;;;;;;;;;14.82;58.57;95590.94;5091342;28;20013;-69
2022/11/01 06:19:45;;;;;;;;;;;;;;;14.78;58.18;95593.47;5089995;28;20426;-69
2022/11/01 06:22:10;;;;;;;;;;;;;;;14.79;57.77;95599.59;5086176;28;20014;-69
2022/11/01 06:24:35;;;;;;;;;;;;;;;14.81;57.48;95613.47;5072390;28;20012;-69
2022/11/01 06:27:00;;;;;;;;;;;;;;;14.90;57.00;95613.47;5086287;28;20066;-70
2022/11/01 06:29:25;;;;;;;;;;;;;;;14.95;56.93;95624.78;5089948;28;20009;-69
2022/11/01 06:31:51;;;;;;;;;;;;;;;14.97;56.63;95632.50;5090164;28;20016;-70
2022/11/01 06:34:16;;;;;;;;;;;;;;;15.13;56.41;95630.88;5091469;28;20016;-69
2022/11/01 06:36:42;;;;;;;;;;;;;;;15.19;56.54;95647.56;5091267;28;20036;-69
2022/11/01 06:39:07;;;;;;;;;;;;;;;15.09;56.35;95654.06;5092411;28;20009;-69
2022/11/01 06:41:32;;;;;;;;;;;;;;;15.29;56.14;95655.25;5091314;28;20428;-69
2022/11/01 06:43:57;;;;;;;;;;;;;;;15.27;56.34;95663.63;5090081;28;20107;-69
2022/11/01 06:46:22;;;;;;;;;;;;;;;15.49;55.54;95659.91;5090152;28;20020;-69
2022/11/01 06:48:48;;;;;;;;;;;;;;;15.60;55.42;95671.84;5086197;28;20087;-69
2022/11/01 06:51:13;;;;;;;;;;;;;;;15.93;55.12;95671.25;5084888;28;20009;-69
2022/11/01 06:53:38;;;;;;;;;;;;;;;16.20;54.62;95671.84;5091246;28;20017;-70
2022/11/01 06:56:03;;;;;;;;;;;;;;;16.31;53.86;95673.03;5090326;28;20116;-71
2022/11/01 06:58:29;;;;;;;;;;;;;;;16.49;53.22;95679.88;5089045;28;20011;-71
2022/11/01 07:00:54;;;;;;;;;;;;;;;16.59;53.00;95690.22;5087498;28;20074;-71
2022/11/01 07:03:19;;;;;;;;;;;;;;;16.45;53.25;95692.38;5092104;28;20005;-72
2022/11/01 07:05:47;;;;;;;;;;;;;;;16.76;53.03;95688.50;5089747;28;20085;-71
2022/11/01 07:08:12;;;;;;;;;;;;;;;16.95;52.14;95690.72;5091616;28;20583;-70
2022/11/01 07:10:38;;;;;;;;;;;;;;;16.84;51.59;95696.50;5090249;28;20143;-70
2022/11/01 07:13:04;;;;;;;;;;;;;;;16.29;52.18;95694.84;5089498;28;20503;-71
2022/11/01 07:15:30;;;;;;;;;;;;;;;16.53;52.15;95707.63;5080451;28;20009;-72
2022/11/01 07:17:59;;;;;;;;;;;;;;;16.24;51.94;95711.16;5090154;28;20015;-71
2022/11/01 07:20:26;;;;;;;;;;;;;;;16.32;52.62;95720.25;5089593;28;20013;-71
2022/11/01 07:22:59;;;;;;;;;;;;;;;16.57;52.23;95724.66;5089967;28;20013;-71
2022/11/01 07:25:24;;;;;;;;;;;;;;;16.48;52.25;95721.25;5090151;28;20019;-71
2022/11/01 07:27:49;;;;;;;;;;;;;;;16.47;52.11;95733.09;5090272;28;20100;-71
2022/11/01 07:30:14;;;;;;;;;;;;;;;16.60;51.62;95732.06;5089810;28;20009;-72
2022/11/01 07:32:40;;;;;;;;;;;;;;;16.88;51.06;95744.97;5081066;28;20013;-72
2022/11/01 07:35:05;;;;;;;;;;;;;;;16.83;50.56;95747.88;5086828;28;20369;-71
2022/11/01 07:37:30;;;;;;;;;;;;;;;17.15;49.91;95744.44;5090744;28;20103;-71
2022/11/01 07:39:56;;;;;;;;;;;;;;;17.29;49.65;95752.19;5090401;28;20278;-71
2022/11/01 07:42:21;;;;;;;;;;;;;;;17.27;49.44;95756.34;5086407;28;20469;-71
2022/11/01 07:44:46;;;;;;;;;;;;;;;17.71;48.58;95757.47;5089125;28;20502;-71
2022/11/01 07:47:12;;;;;;;;;;;;;;;18.18;47.65;95754.38;5075881;28;20432;-70
2022/11/01 07:49:37;;;;;;;;;;;;;;;18.39;46.99;95756.94;5075764;28;20013;-69
2022/11/01 07:52:03;;;;;;;;;;;;;;;18.94;46.48;95756.31;5092000;28;20057;-70
2022/11/01 07:54:28;;;;;;;;;;;;;;;18.69;47.21;95752.88;5089390;28;20513;-69
2022/11/01 07:56:53;;;;;;;;;;;;;;;18.55;47.38;95748.94;5090453;28;20473;-69
2022/11/01 07:59:18;;;;;;;;;;;;;;;18.60;47.04;95749.50;5090578;28;20013;-69
2022/11/01 08:01:44;;;;;;;;;;;;;;;19.10;46.60;95748.25;5089859;28;20016;-70
2022/11/01 08:04:09;;;;;;;;;;;;;;;19.47;46.01;95751.56;5072222;28;20025;-71
2022/11/01 08:06:34;;;;;;;;;;;;;;;19.72;45.50;95746.84;5090096;28;20019;-70
2022/11/01 08:08:59;;;;;;;;;;;;;;;19.81;45.76;95743.97;5090322;28;20020;-71
2022/11/01 08:11:24;;;;;;;;;;;;;;;19.74;46.05;95749.19;5090033;28;20005;-72
2022/11/01 08:13:50;;;;;;;;;;;;;;;19.48;46.43;95746.94;5090664;28;20005;-72
2022/11/01 08:16:16;;;;;;;;;;;;;;;19.83;45.52;95740.91;5088899;28;20016;-70
2022/11/01 08:18:42;;;;;;;;;;;;;;;19.68;46.69;95739.78;5088988;28;20385;-74
2022/11/01 08:21:07;;;;;;;;;;;;;;;19.49;46.62;95743.13;5089477;28;20503;-71
2022/11/01 08:23:33;;;;;;;;;;;;;;;20.06;45.90;95749.97;5092434;28;20005;-72
2022/11/01 08:25:58;;;;;;;;;;;;;;;20.50;45.09;95747.16;5090234;28;20104;-78
2022/11/01 08:28:23;;;;;;;;;;;;;;;20.03;46.23;95747.97;5090928;28;20005;-73
2022/11/01 08:30:49;;;;;;;;;;;;;;;20.10;45.96;95750.84;5086503;28;20088;-73
2022/11/01 08:33:14;;;;;;;;;;;;;;;20.33;45.46;95756.41;5071134;28;20045;-72
2022/11/01 08:35:39;;;;;;;;;;;;;;;20.25;45.86;95760.84;5087661;28;20107;-73
2022/11/01 08:38:05;;;;;;;;;;;;;;;20.69;45.27;95766.09;5091121;28;20013;-72
2022/11/01 08:40:31;;;;;;;;;;;;;;;20.51;45.15;95763.00;5090794;28;20005;-73
2022/11/01 08:42:56;;;;;;;;;;;;;;;20.60;45.23;95767.44;5090691;28;20103;-72
2022/11/01 08:45:22;;;;;;;;;;;;;;;20.55;45.27;95763.09;5090459;28;20013;-74
2022/11/01 08:47:47;;;;;;;;;;;;;;;20.54;45.52;95761.53;5090951;28;20005;-72
2022/11/01 08:50:14;;;;;;;;;;;;;;;20.60;45.46;95765.50;5089886;28;20030;-72
2022/11/01 08:52:39;;;;;;;;;;;;;;;20.54;45.67;95766.94;5088213;28;20028;-71
2022/11/01 08:55:05;;;;;;;;;;;;;;;20.45;45.66;95769.00;5089756;28;20006;-72
2022/11/01 08:57:31;;;;;;;;;;;;;;;20.71;45.24;95771.94;5090101;28;20009;-71
2022/11/01 08:59:56;;;;;;;;;;;;;;;20.81;45.06;95775.22;5090414;28;20492;-70
2022/11/01 09:02:21;;;;;;;;;;;;;;;21.17;45.09;95774.03;5090063;28;20005;-72
2022/11/01 09:04:46;;;;;;;;;;;;;;;20.81;45.30;95775.22;5089403;28;20107;-71
2022/11/01 09:07:12;;;;;;;;;;;;;;;20.24;46.64;95772.00;5089181;28;20017;-71
2022/11/01 09:09:37;;;;;;;;;;;;;;;20.85;45.39;95774.16;5089501;28;20009;-70
2022/11/01 09:12:03;;;;;;;;;;;;;;;20.85;45.35;95767.97;5090645;28;20009;-72
2022/11/01 09:14:28;;;;;;;;;;;;;;;20.74;45.70;95763.13;5088404;28;20016;-72
2022/11/01 09:16:53;;;;;;;;;;;;;;;20.70;45.67;95762.25;5092507;28;20016;-71
2022/11/01 09:19:18;;;;;;;;;;;;;;;20.86;45.76;95759.50;5100672;28;20009;-72
2022/11/01 09:21:44;;;;;;;;;;;;;;;20.69;46.09;95747.19;5100085;28;20358;-73
2022/11/01 09:24:13;;;;;;;;;;;;;;;20.98;45.78;95739.66;5092330;28;20058;-70
2022/11/01 09:26:38;;;;;;;;;;;;;;;20.62;46.53;95749.72;5091542;28;20021;-71
2022/11/01 09:29:03;;;;;;;;;;;;;;;20.54;46.51;95748.00;5092439;28;20012;-70
2022/11/01 09:31:28;;;;;;;;;;;;;;;20.51;46.33;95752.19;5090662;28;20016;-67
2022/11/01 09:33:55;;;;;;;;;;;;;;;19.63;48.49;95740.81;5093665;28;20082;-70
2022/11/01 09:36:21;;;;;;;;;;;;;;;19.81;48.23;95727.78;5092394;28;20020;-69
2022/11/01 09:38:46;;;;;;;;;;;;;;;20.38;47.47;95734.50;5091866;28;20373;-70
2022/11/01 09:41:20;;;;;;;;;;;;;;;19.74;48.71;95727.59;5091180;28;20024;-69
2022/11/01 09:43:46;;;;;;;;;;;;;;;20.15;47.90;95720.06;5076313;28;20008;-70
2022/11/01 09:46:15;;;;;;;;;;;;;;;20.25;47.70;95727.63;5084429;28;20013;-70
2022/11/01 09:48:41;;;;;;;;;;;;;;;20.54;46.95;95733.72;5094152;28;20005;-71
2022/11/01 09:51:10;;;;;;;;;;;;;;;20.87;46.52;95738.66;5084757;28;20020;-69
2022/11/01 09:53:35;;;;;;;;;;;;;;;21.44;45.56;95743.28;5092186;28;20120;-71
2022/11/01 09:56:09;;;;;;;;;;;;;;;22.00;44.41;95750.03;5092196;28;20504;-76
2022/11/01 09:58:46;;;;;;;;;;;;;;;22.02;43.09;95755.88;5093031;28;20005;-72
2022/11/01 10:01:17;;;;;;;;;;;;;;;21.96;43.74;95757.34;5092024;28;20013;-70
2022/11/01 10:03:58;;;;;;;;;;;;;;;22.40;43.63;95759.59;5092596;28;20023;-70
2022/11/01 10:06:26;;;;;;;;;;;;;;;22.57;43.11;95761.78;5092743;28;20020;-70
2022/11/01 10:09:04;;;;;;;;;;;;;;;22.57;42.63;95764.47;5093941;28;20005;-69
2022/11/01 10:11:48;;;;;;;;;;;;;;;22.47;42.85;95768.63;5094470;28;20005;-70
2022/11/01 10:14:44;;;;;;;;;;;;;;;22.81;42.60;95777.63;5092889;28;20008;-71
2022/11/01 10:17:14;;;;;;;;;;;;;;;23.02;42.50;95773.66;5082375;28;20488;-71
2022/11/01 10:19:49;;;;;;;;;;;;;;;23.13;42.40;95768.34;5094072;28;20005;-71
2022/11/01 10:22:27;;;;;;;;;;;;;;;23.28;41.96;95765.44;5093398;28;20018;-71
2022/11/01 10:24:55;;;;;;;;;;;;;;;22.91;42.81;95759.94;5093248;28;20061;-71
2022/11/01 10:27:20;;;;;;;;;;;;;;;23.03;42.07;95767.88;5093684;28;20005;-71
2022/11/01 10:30:03;;;;;;;;;;;;;;;22.36;42.80;95764.97;5093393;28;20051;-69
2022/11/01 10:32:47;;;;;;;;;;;;;;;22.81;42.68;95758.63;5091368;28;20346;-69
2022/11/01 10:35:14;;;;;;;;;;;;;;;22.87;42.06;95764.50;5092250;28;20100;-69
2022/11/01 10:37:53;;;;;;;;;;;;;;;22.64;42.29;95764.59;5092371;28;20016;-75
2022/11/01 10:40:22;;;;;;;;;;;;;;;21.99;43.48;95762.03;5092737;28;20091;-72
2022/11/01 10:42:47;;;;;;;;;;;;;;;21.89;44.38;95760.69;5091184;28;20009;-70
2022/11/01 10:45:17;;;;;;;;;;;;;;;21.84;43.93;95766.41;5090776;28;20013;-70
2022/11/01 10:47:44;;;;;;;;;;;;;;;22.01;43.83;95763.25;5087132;28;20125;-71
2022/11/01 10:50:19;;;;;;;;;;;;;;;21.58;44.31;95763.63;5091457;28;20013;-71
2022/11/01 10:53:02;;;;;;;;;;;;;;;21.28;45.40;95754.16;5089104;28;20013;-74
2022/11/01 10:55:27;;;;;;;;;;;;;;;21.20;45.16;95752.47;5088196;28;20009;-70
2022/11/01 10:58:04;;;;;;;;;;;;;;;21.05;45.30;95753.34;5090806;28;20015;-70
2022/11/01 11:00:31;;;;;;;;;;;;;;;21.03;45.55;95750.97;5091365;28;20385;-71
2022/11/01 11:02:57;;;;;;;;;;;;;;;21.35;44.68;95752.78;5090732;28;20013;-71
2022/11/01 11:05:24;;;;;;;;;;;;;;;20.90;45.84;95746.84;5089191;28;20439;-71
2022/11/01 11:07:49;;;;;;;;;;;;;;;21.07;45.30;95753.75;5086484;28;20021;-71
2022/11/01 11:10:23;;;;;;;;;;;;;;;20.22;46.51;95763.47;5069854;28;20016;-69
2022/11/01 11:12:49;;;;;;;;;;;;;;;21.03;45.42;95758.28;5071192;28;20178;-70
2022/11/01 11:15:21;;;;;;;;;;;;;;;20.48;46.11;95761.03;5088989;28;20063;-69
2022/11/01 11:17:48;;;;;;;;;;;;;;;20.42;46.11;95758.88;5090366;28;20009;-69
2022/11/01 11:20:18;;;;;;;;;;;;;;;19.60;48.27;95756.91;5091558;28;20083;-70
2022/11/01 11:22:44;;;;;;;;;;;;;;;19.98;47.90;95753.63;5091638;28;20051;-69
2022/11/01 11:25:14;;;;;;;;;;;;;;;20.17;47.49;95764.53;5089822;28;20068;-70
2022/11/01 11:27:43;;;;;;;;;;;;;;;20.24;47.10;95761.97;5089851;28;20701;-70
2022/11/01 11:30:11;;;;;;;;;;;;;;;20.29;46.99;95770.94;5089835;28;20087;-69
2022/11/01 11:32:40;;;;;;;;;;;;;;;20.13;47.50;95760.94;5090534;28;20334;-70
2022/11/01 11:35:15;;;;;;;;;;;;;;;19.33;49.06;95748.47;5088437;28;20048;-69
2022/11/01 11:37:49;;;;;;;;;;;;;;;20.24;47.21;95753.09;5089804;28;20008;-70
2022/11/01 11:40:15;;;;;;;;;;;;;;;20.62;46.36;95759.75;5089987;28;20005;-70
2022/11/01 11:42:40;;;;;;;;;;;;;;;19.90;47.74;95757.28;5089859;28;20016;-71
2022/11/01 11:45:08;;;;;;;;;;;;;;;20.26;47.08;95757.00;5088817;28;20016;-70
2022/11/01 11:47:35;;;;;;;;;;;;;;;20.47;47.05;95761.34;5090253;28;20035;-70
2022/11/01 11:50:14;;;;;;;;;;;;;;;20.42;46.68;95765.09;5090681;28;20005;-70
2022/11/01 11:52:41;;;;;;;;;;;;;;;20.31;46.84;95765.97;5090607;28;20081;-70
2022/11/01 11:55:25;;;;;;;;;;;;;;;20.46;46.37;95770.56;5088557;28;20012;-71
2022/11/01 11:57:52;;;;;;;;;;;;;;;19.92;47.36;95771.25;5090018;28;20058;-71
2022/11/01 12:00:22;;;;;;;;;;;;;;;20.48;46.24;95771.03;5090376;28;20012;-70
2022/11/01 12:02:48;;;;;;;;;;;;;;;19.92;47.32;95771.25;5090494;28;20509;-70
2022/11/01 12:05:15;;;;;;;;;;;;;;;20.51;45.60;95770.31;5089588;28;20017;-71
2022/11/01 12:07:45;;;;;;;;;;;;;;;19.68;47.50;95767.56;5090718;28;20005;-70
2022/11/01 12:10:29;;;;;;;;;;;;;;;19.44;48.11;95775.75;5090318;28;20052;-69
2022/11/01 12:12:57;;;;;;;;;;;;;;;18.86;48.77;95773.38;5090621;28;20004;-70
2022/11/01 12:15:32;;;;;;;;;;;;;;;19.44;47.65;95773.81;5089285;28;20038;-70
2022/11/01 12:18:17;;;;;;;;;;;;;;;19.34;47.79;95778.94;5088882;28;20008;-70
2022/11/01 12:20:47;;;;;;;;;;;;;;;18.81;49.33;95773.63;5090335;28;20230;-70
2022/11/01 12:23:13;;;;;;;;;;;;;;;18.87;49.63;95771.47;5089437;28;20062;-70
2022/11/01 12:25:40;;;;;;;;;;;;;;;18.91;49.31;95766.97;5089905;28;20105;-71
2022/11/01 12:28:11;;;;;;;;;;;;;;;19.28;48.68;95770.31;5090173;28;20008;-70
2022/11/01 12:30:36;;;;;;;;;;;;;;;19.72;47.32;95756.84;5088792;28;20377;-70
2022/11/01 12:33:08;;;;;;;;;;;;;;;18.84;50.00;95767.56;5089441;28;20013;-70
2022/11/01 12:35:40;;;;;;;;;;;;;;;19.40;49.03;95756.00;5089983;28;20012;-70
2022/11/01 12:38:17;;;;;;;;;;;;;;;18.94;50.02;95760.91;5088839;28;20570;-70
2022/11/01 12:40:44;;;;;;;;;;;;;;;19.03;50.01;95758.84;5089127;28;20066;-70
2022/11/01 12:43:28;;;;;;;;;;;;;;;19.34;49.33;95758.13;5090020;28;20016;-70
2022/11/01 12:45:53;;;;;;;;;;;;;;;18.70;51.16;95769.84;5089532;28;20019;-70
2022/11/01 12:48:22;;;;;;;;;;;;;;;19.62;49.25;95757.38;5088517;28;20013;-70
2022/11/01 12:51:07;;;;;;;;;;;;;;;19.27;49.68;95762.56;5088876;28;20017;-70
2022/11/01 12:53:47;;;;;;;;;;;;;;;19.12;50.47;95758.69;5057998;28;20501;-70
2022/11/01 12:56:12;;;;;;;;;;;;;;;19.12;50.28;95756.78;5088076;28;20473;-70
2022/11/01 12:58:37;;;;;;;;;;;;;;;19.50;49.58;95760.91;5091932;28;20005;-70